Time;durP1;ratioP1;P1;durP2;ratioP2;P2;SDS_P1;SDS_P2;PMS_P1;PMS_P2;Temp;Humidity;BMP_temperature;BMP_pressure;BME280_temperature;BME280_humidity;BME280_pressure;Samples;Min_cycle;Max_cycle;Signal;HPM_P1;HPM_P2
2022/12/10 00:01:52;;;;;;;50.92;20.70;;;-2.10;99.90;;;;;;6197013;23;20027;-76
2022/12/10 00:04:19;;;;;;;50.22;22.38;;;-0.60;99.90;;;;;;6195119;23;20021;-75
2022/12/10 00:06:45;;;;;;;45.90;21.17;;;-0.60;99.90;;;;;;6195064;23;20048;-74
2022/12/10 00:09:13;;;;;;;41.97;18.75;;;-0.60;99.90;;;;;;6169751;23;20021;-76
2022/12/10 00:11:39;;;;;;;45.40;20.00;;;-0.20;99.90;;;;;;6196658;23;20016;-75
2022/12/10 00:14:09;;;;;;;48.30;20.08;;;-0.50;99.90;;;;;;6194942;23;20017;-76
2022/12/10 00:16:35;;;;;;;65.35;25.60;;;-0.60;99.90;;;;;;6194801;23;20018;-77
2022/12/10 00:19:01;;;;;;;51.50;22.30;;;0.70;99.90;;;;;;6221073;23;20031;-75
2022/12/10 00:21:29;;;;;;;55.58;23.73;;;0.70;99.90;;;;;;6220497;23;20012;-76
2022/12/10 00:23:56;;;;;;;50.13;21.50;;;-0.50;99.90;;;;;;6221283;23;20067;-76
2022/12/10 00:26:29;;;;;;;54.55;22.17;;;-0.50;99.90;;;;;;6194069;23;20021;-75
2022/12/10 00:28:56;;;;;;;47.35;21.33;;;-0.50;99.90;;;;;;6220287;23;20017;-75
2022/12/10 00:31:25;;;;;;;55.30;23.65;;;-0.10;99.90;;;;;;6195981;23;20012;-78
2022/12/10 00:33:54;;;;;;;58.95;25.45;;;-0.60;99.90;;;;;;6220344;23;20023;-77
2022/12/10 00:36:32;;;;;;;59.58;24.40;;;-0.50;99.90;;;;;;6193475;23;20071;-76
2022/12/10 00:39:01;;;;;;;57.20;23.33;;;-0.40;99.90;;;;;;6194360;23;20882;-77
2022/12/10 00:41:27;;;;;;;56.58;23.27;;;-0.60;99.90;;;;;;6219260;23;20126;-77
2022/12/10 00:43:53;;;;;;;59.28;24.80;;;0.50;99.90;;;;;;6195528;23;20012;-76
2022/12/10 00:46:19;;;;;;;61.22;24.20;;;-0.70;99.90;;;;;;6194638;23;20019;-78
2022/12/10 00:48:45;;;;;;;62.38;26.15;;;-0.70;99.90;;;;;;6221757;23;20478;-74
2022/12/10 00:51:12;;;;;;;65.50;25.60;;;-0.60;99.90;;;;;;6220818;23;20063;-76
2022/12/10 00:53:41;;;;;;;61.58;25.08;;;0.20;99.90;;;;;;6195792;23;20009;-77
2022/12/10 00:56:09;;;;;;;55.67;23.77;;;-0.40;99.90;;;;;;6196196;23;20035;-76
2022/12/10 00:58:36;;;;;;;53.72;23.05;;;-0.60;99.90;;;;;;6220215;23;20012;-76
2022/12/10 01:01:28;;;;;;;43.05;17.85;;;0.10;99.90;;;;;;6220099;23;20102;-77
2022/12/10 01:03:58;;;;;;;59.03;25.40;;;-0.60;99.90;;;;;;6195033;23;20480;-75
2022/12/10 01:06:26;;;;;;;52.80;23.00;;;-0.30;99.90;;;;;;6218382;23;20013;-75
2022/12/10 01:08:55;;;;;;;63.90;25.90;;;-0.70;99.90;;;;;;6220121;23;20330;-76
2022/12/10 01:11:24;;;;;;;56.67;22.23;;;-0.70;99.90;;;;;;6193456;23;20020;-76
2022/12/10 01:13:52;;;;;;;57.17;24.70;;;-0.70;99.90;;;;;;6195462;23;20062;-75
2022/12/10 01:16:20;;;;;;;61.15;24.63;;;-0.60;99.90;;;;;;6219272;23;20055;-75
2022/12/10 01:18:46;;;;;;;56.72;22.45;;;-0.70;99.90;;;;;;6219648;23;20009;-76
2022/12/10 01:21:15;;;;;;;51.60;23.00;;;0.90;99.90;;;;;;6194598;23;20021;-76
2022/12/10 01:23:43;;;;;;;57.47;23.73;;;0.20;99.90;;;;;;6194906;23;20024;-76
2022/12/10 01:26:11;;;;;;;54.50;22.70;;;-0.80;99.90;;;;;;6192475;23;20025;-76
2022/12/10 01:28:38;;;;;;;57.40;22.77;;;-0.40;99.90;;;;;;6194772;23;20012;-76
2022/12/10 01:31:10;;;;;;;55.83;23.70;;;-0.70;99.90;;;;;;6219817;23;20293;-75
2022/12/10 01:33:36;;;;;;;56.25;22.88;;;0.80;99.90;;;;;;6194956;23;20017;-76
2022/12/10 01:36:20;;;;;;;49.97;20.98;;;-0.70;99.90;;;;;;6194404;23;20219;-77
2022/12/10 01:38:46;;;;;;;56.03;21.58;;;-0.70;99.90;;;;;;6218955;23;20051;-77
2022/12/10 01:41:25;;;;;;;54.28;24.08;;;-0.80;99.90;;;;;;6220534;23;20058;-75
2022/12/10 01:44:03;;;;;;;55.67;23.05;;;-0.70;99.90;;;;;;6195568;23;20058;-76
2022/12/10 01:46:34;;;;;;;60.05;24.42;;;-0.80;99.90;;;;;;6193798;23;20020;-76
2022/12/10 01:49:06;;;;;;;64.20;25.42;;;-0.70;99.90;;;;;;6194543;23;20013;-77
2022/12/10 01:51:37;;;;;;;66.30;24.52;;;-0.80;99.90;;;;;;6194036;23;20021;-77
2022/12/10 01:54:06;;;;;;;62.30;26.15;;;-0.70;99.90;;;;;;6219261;23;20016;-77
2022/12/10 01:56:37;;;;;;;61.47;25.27;;;-0.80;99.90;;;;;;6217656;23;20195;-76
2022/12/10 01:59:04;;;;;;;63.38;26.17;;;-0.90;99.90;;;;;;6219654;23;20005;-75
2022/12/10 02:01:55;;;;;;;57.55;24.42;;;-0.80;99.90;;;;;;6219379;23;20064;-75
2022/12/10 02:04:39;;;;;;;60.67;25.45;;;-0.80;99.90;;;;;;6219840;23;20483;-76
2022/12/10 02:07:15;;;;;;;72.70;28.85;;;-0.20;99.90;;;;;;6194684;23;20012;-76
2022/12/10 02:10:14;;;;;;;73.47;27.95;;;0.60;99.90;;;;;;6193546;23;20054;-76
2022/12/10 02:12:48;;;;;;;70.28;29.05;;;-0.80;99.90;;;;;;6219679;23;20008;-77
2022/12/10 02:15:27;;;;;;;74.30;28.77;;;0.70;99.90;;;;;;6194753;23;20013;-77
2022/12/10 02:18:09;;;;;;;70.68;26.98;;;-0.80;99.90;;;;;;6219978;23;20035;-78
2022/12/10 02:20:52;;;;;;;62.40;24.80;;;-0.80;99.90;;;;;;6220000;23;20023;-78
2022/12/10 02:23:28;;;;;;;72.18;27.05;;;-0.90;99.90;;;;;;6220443;23;20455;-78
2022/12/10 02:26:17;;;;;;;72.22;28.63;;;-0.90;99.90;;;;;;6220127;23;20377;-78
2022/12/10 02:29:00;;;;;;;65.88;27.70;;;-0.80;99.90;;;;;;6193126;23;20219;-75
2022/12/10 02:31:30;;;;;;;65.03;26.73;;;-0.90;99.90;;;;;;6218334;23;20047;-76
2022/12/10 02:33:59;;;;;;;63.25;26.02;;;-0.90;99.90;;;;;;6220096;23;20326;-76
2022/12/10 02:36:28;;;;;;;63.90;26.70;;;-0.90;99.90;;;;;;6192724;23;20005;-77
2022/12/10 02:38:57;;;;;;;65.10;26.33;;;-0.90;99.90;;;;;;6219713;23;20016;-77
2022/12/10 02:41:30;;;;;;;72.43;27.80;;;-0.90;99.90;;;;;;6218114;23;20262;-76
2022/12/10 02:43:59;;;;;;;57.42;23.88;;;-0.30;99.90;;;;;;6219139;23;20068;-76
2022/12/10 02:46:28;;;;;;;48.38;20.08;;;-0.90;99.90;;;;;;6218254;23;20285;-76
2022/12/10 02:48:54;;;;;;;66.25;28.38;;;-0.90;99.90;;;;;;6220085;23;20350;-76
2022/12/10 02:51:20;;;;;;;74.07;30.02;;;-0.90;99.90;;;;;;6220261;23;20202;-76
2022/12/10 02:53:49;;;;;;;60.42;24.63;;;0.20;99.90;;;;;;6193883;23;20009;-77
2022/12/10 02:56:30;;;;;;;63.78;25.73;;;-0.70;99.90;;;;;;6194346;23;20044;-76
2022/12/10 02:59:21;;;;;;;64.70;27.02;;;-0.70;99.90;;;;;;6218960;23;20009;-77
2022/12/10 03:01:53;;;;;;;62.97;25.27;;;-0.70;99.90;;;;;;6218768;23;20070;-77
2022/12/10 03:04:38;;;;;;;66.55;27.92;;;0.00;99.90;;;;;;6221439;23;20012;-76
2022/12/10 03:07:14;;;;;;;71.55;26.85;;;-0.70;99.90;;;;;;6196324;23;20439;-78
2022/12/10 03:09:51;;;;;;;62.38;27.08;;;-0.70;99.90;;;;;;6221161;23;20058;-77
2022/12/10 03:12:55;;;;;;;74.97;27.15;;;-0.70;99.90;;;;;;6220819;23;20207;-77
2022/12/10 03:15:23;;;;;;;66.03;27.92;;;-0.80;99.90;;;;;;6165452;23;20015;-76
2022/12/10 03:17:53;;;;;;;62.97;27.50;;;0.40;99.90;;;;;;6214460;23;20191;-76
2022/12/10 03:20:20;;;;;;;67.28;27.15;;;-0.70;99.90;;;;;;6221342;23;20012;-76
2022/12/10 03:22:48;;;;;;;61.60;26.23;;;-0.70;99.90;;;;;;6170829;23;20083;-76
2022/12/10 03:25:18;;;;;;;71.55;28.33;;;-0.90;99.90;;;;;;6220575;23;20020;-76
2022/12/10 03:27:49;;;;;;;59.85;23.70;;;-0.80;99.90;;;;;;6219732;23;20028;-76
2022/12/10 03:30:15;;;;;;;66.80;25.75;;;-0.20;99.90;;;;;;6220510;23;20020;-76
2022/12/10 03:32:43;;;;;;;60.58;26.60;;;-0.90;99.90;;;;;;6195530;23;20011;-76
2022/12/10 03:35:09;;;;;;;75.97;30.75;;;-0.80;99.90;;;;;;6220768;23;20074;-76
2022/12/10 03:37:36;;;;;;;66.45;27.42;;;-0.80;99.90;;;;;;6194570;23;20017;-76
2022/12/10 03:40:04;;;;;;;70.35;26.55;;;1.10;99.90;;;;;;6221240;23;20024;-75
2022/12/10 03:42:30;;;;;;;62.10;24.27;;;-0.90;99.90;;;;;;6219362;23;20009;-75
2022/12/10 03:44:55;;;;;;;65.13;26.55;;;-0.80;99.90;;;;;;6195945;23;20543;-76
2022/12/10 03:47:22;;;;;;;64.63;28.38;;;-0.90;99.90;;;;;;6171480;23;20016;-77
2022/12/10 03:49:52;;;;;;;73.22;29.05;;;-0.90;99.90;;;;;;6219464;23;20051;-76
2022/12/10 03:52:18;;;;;;;69.53;26.00;;;0.20;99.90;;;;;;6221783;23;20245;-77
2022/12/10 03:54:44;;;;;;;71.50;27.85;;;-0.80;99.90;;;;;;6195268;23;20017;-77
2022/12/10 03:57:09;;;;;;;63.15;25.77;;;-1.10;99.90;;;;;;6195040;23;20009;-77
2022/12/10 03:59:35;;;;;;;69.30;26.85;;;-1.10;99.90;;;;;;6194916;23;20043;-77
2022/12/10 04:02:01;;;;;;;57.92;23.42;;;-1.00;99.90;;;;;;6195412;23;20011;-77
2022/12/10 04:04:26;;;;;;;60.00;25.45;;;-0.90;99.90;;;;;;6196492;23;20620;-76
2022/12/10 04:06:52;;;;;;;79.93;30.15;;;-1.00;99.90;;;;;;6220474;23;20016;-75
2022/12/10 04:09:18;;;;;;;65.20;26.52;;;-1.00;99.90;;;;;;6195519;23;20016;-75
2022/12/10 04:11:44;;;;;;;75.55;27.92;;;0.50;99.90;;;;;;6170657;23;20013;-75
2022/12/10 04:16:55;;;;;;;81.18;31.40;;;-1.00;99.90;;;;;;6219939;23;20020;-75
2022/12/10 04:19:22;;;;;;;67.88;27.70;;;-1.00;99.90;;;;;;6195632;23;20084;-75
2022/12/10 04:27:32;;;;;;;70.53;27.17;;;-1.20;99.90;;;;;;6221019;23;20028;-76
2022/12/10 04:29:59;;;;;;;60.22;25.67;;;-1.10;99.90;;;;;;6220768;23;20363;-76
2022/12/10 04:32:26;;;;;;;69.00;26.67;;;-1.20;99.90;;;;;;6221107;23;20044;-76
2022/12/10 04:34:51;;;;;;;65.00;27.45;;;-1.30;99.90;;;;;;6219341;23;20016;-76
2022/12/10 04:37:20;;;;;;;71.28;29.50;;;0.60;99.90;;;;;;6195300;23;20008;-77
2022/12/10 04:39:46;;;;;;;69.22;27.48;;;-1.20;99.90;;;;;;6220375;23;20023;-77
2022/12/10 04:42:12;;;;;;;78.60;30.55;;;-1.30;99.90;;;;;;6194330;23;20020;-77
2022/12/10 04:44:38;;;;;;;77.97;30.65;;;-1.30;99.90;;;;;;6193848;23;20013;-76
2022/12/10 04:47:07;;;;;;;64.65;26.52;;;-1.10;99.90;;;;;;6220520;23;20160;-77
2022/12/10 04:49:33;;;;;;;58.03;22.52;;;-1.30;99.90;;;;;;6194936;23;20019;-77
2022/12/10 04:51:59;;;;;;;82.00;32.38;;;0.40;99.90;;;;;;6195613;23;20016;-77
2022/12/10 04:54:24;;;;;;;67.40;26.63;;;-1.30;99.90;;;;;;6171090;23;20031;-77
2022/12/10 04:56:51;;;;;;;80.97;32.28;;;-1.20;99.90;;;;;;6195282;23;20044;-77
2022/12/10 04:59:17;;;;;;;77.78;31.98;;;-1.20;99.90;;;;;;6194933;23;20016;-77
2022/12/10 05:01:43;;;;;;;86.95;33.22;;;-1.30;99.90;;;;;;6220866;23;20188;-76
2022/12/10 05:04:35;;;;;;;60.65;24.67;;;-1.40;99.90;;;;;;6221056;23;20012;-76
2022/12/10 05:07:04;;;;;;;80.90;32.53;;;-2.60;99.90;;;;;;6175023;23;20013;-76
2022/12/10 05:09:30;;;;;;;64.38;26.48;;;-1.40;99.90;;;;;;6170591;23;20203;-76
2022/12/10 05:11:55;;;;;;;55.67;23.58;;;0.00;99.90;;;;;;6220853;23;20008;-76
2022/12/10 05:14:21;;;;;;;71.35;28.38;;;-1.00;99.90;;;;;;6171007;23;20004;-77
2022/12/10 05:16:50;;;;;;;79.90;29.98;;;-1.50;99.90;;;;;;6219569;23;20039;-75
2022/12/10 05:19:16;;;;;;;71.03;29.52;;;-1.30;99.90;;;;;;6220413;23;20068;-75
2022/12/10 05:24:25;;;;;;;65.90;25.45;;;-1.50;99.90;;;;;;6199037;23;20336;-75
2022/12/10 05:26:51;;;;;;;78.13;30.60;;;-1.30;99.90;;;;;;6220178;23;20075;-75
2022/12/10 05:29:17;;;;;;;82.93;30.58;;;-2.80;99.90;;;;;;6170273;23;20067;-75
2022/12/10 05:31:43;;;;;;;69.10;27.98;;;-1.50;99.90;;;;;;6195460;23;20020;-75
2022/12/10 05:34:10;;;;;;;79.47;30.95;;;-1.50;99.90;;;;;;6195552;23;20017;-74
2022/12/10 05:36:36;;;;;;;75.60;28.13;;;-1.60;99.90;;;;;;6195471;23;20072;-76
2022/12/10 05:39:02;;;;;;;94.10;34.13;;;-1.50;99.90;;;;;;6219979;23;20011;-75
2022/12/10 05:41:34;;;;;;;78.93;28.73;;;-1.20;99.90;;;;;;6220362;23;20019;-76
2022/12/10 05:44:00;;;;;;;78.78;29.83;;;-1.20;99.90;;;;;;6220093;23;20323;-77
2022/12/10 05:46:35;;;;;;;100.43;35.22;;;-1.30;99.90;;;;;;6170554;23;20027;-75
2022/12/10 05:49:04;;;;;;;114.55;39.42;;;-1.20;99.90;;;;;;6194736;23;20012;-75
2022/12/10 05:51:32;;;;;;;106.13;38.08;;;-1.10;99.90;;;;;;6196245;23;20022;-76
2022/12/10 05:54:01;;;;;;;94.90;33.95;;;-1.20;99.90;;;;;;6195399;23;20176;-75
2022/12/10 05:56:27;;;;;;;104.60;35.45;;;-1.20;99.90;;;;;;6220439;23;20230;-77
2022/12/10 05:58:56;;;;;;;100.45;36.05;;;-1.00;99.90;;;;;;6194263;23;20021;-75
2022/12/10 06:01:26;;;;;;;113.72;37.78;;;-0.20;99.90;;;;;;6219776;23;20013;-76
2022/12/10 06:03:52;;;;;;;92.00;32.53;;;-0.90;99.90;;;;;;6220068;23;20058;-77
2022/12/10 06:06:27;;;;;;;85.55;31.13;;;-1.10;99.90;;;;;;6220220;23;20207;-76
2022/12/10 06:08:52;;;;;;;;;;;-1.10;99.90;;;;;;6219547;23;20685;-77
2022/12/10 06:11:18;;;;;;;94.05;33.17;;;-1.10;99.90;;;;;;6219547;23;19924;-77
2022/12/10 06:13:44;;;;;;;85.03;33.80;;;-0.50;99.90;;;;;;6194413;23;20199;-76
2022/12/10 06:16:12;;;;;;;74.07;27.08;;;-0.10;99.90;;;;;;6195104;23;20036;-76
2022/12/10 06:18:38;;;;;;;82.85;31.10;;;-1.30;99.90;;;;;;6219654;23;20043;-77
2022/12/10 06:21:08;;;;;;;88.18;32.55;;;-1.20;99.90;;;;;;6193492;23;20013;-76
2022/12/10 06:23:35;;;;;;;82.47;31.88;;;0.30;99.90;;;;;;6220560;23;20246;-77
2022/12/10 06:26:35;;;;;;;86.18;32.55;;;0.60;99.90;;;;;;6194701;23;20028;-76
2022/12/10 06:29:00;;;;;;;57.88;23.45;;;-1.50;99.90;;;;;;6185314;23;20562;-77
2022/12/10 06:31:26;;;;;;;80.07;31.20;;;-1.30;99.90;;;;;;6170324;23;20028;-76
2022/12/10 06:33:53;;;;;;;99.38;34.60;;;-1.20;99.90;;;;;;6194775;23;20054;-77
2022/12/10 06:36:19;;;;;;;98.28;32.58;;;-1.40;99.90;;;;;;6171553;23;20013;-77
2022/12/10 06:38:46;;;;;;;101.50;35.25;;;-1.20;99.90;;;;;;6220841;23;20203;-77
2022/12/10 06:41:17;;;;;;;110.38;38.13;;;-1.20;99.90;;;;;;6195257;23;20184;-75
2022/12/10 06:43:45;;;;;;;79.47;29.45;;;0.70;99.90;;;;;;6220093;23;20076;-76
2022/12/10 06:46:13;;;;;;;84.20;31.95;;;-1.40;99.90;;;;;;6195200;23;20072;-75
2022/12/10 06:48:40;;;;;;;89.40;31.35;;;-1.40;99.90;;;;;;6220972;23;20034;-75
2022/12/10 06:51:07;;;;;;;72.30;26.80;;;-1.20;99.90;;;;;;6220551;23;20020;-75
2022/12/10 06:53:34;;;;;;;101.57;35.10;;;-1.30;99.90;;;;;;6221584;23;20024;-75
2022/12/10 06:56:01;;;;;;;101.85;32.60;;;-0.80;99.90;;;;;;6195807;23;20008;-76
2022/12/10 06:58:31;;;;;;;85.88;31.63;;;-0.10;99.90;;;;;;6215908;23;20008;-75
2022/12/10 07:01:09;;;;;;;109.45;38.55;;;0.00;99.90;;;;;;6191301;23;20012;-76
2022/12/10 07:03:35;;;;;;;127.78;39.55;;;-1.30;99.90;;;;;;6219821;23;20207;-75
2022/12/10 07:06:01;;;;;;;100.07;33.03;;;-2.30;99.90;;;;;;6193836;23;20012;-76
2022/12/10 07:08:28;;;;;;;109.43;35.30;;;-1.50;99.90;;;;;;6221357;23;20055;-75
2022/12/10 07:10:54;;;;;;;98.43;33.42;;;0.60;99.90;;;;;;6217749;23;20020;-76
2022/12/10 07:13:20;;;;;;;116.60;35.67;;;0.20;99.90;;;;;;6193845;23;20373;-77
2022/12/10 07:15:45;;;;;;;86.13;27.80;;;-1.30;99.90;;;;;;6193152;23;20084;-76
2022/12/10 07:18:11;;;;;;;80.07;27.27;;;-1.40;99.90;;;;;;6218284;23;20016;-77
2022/12/10 07:20:37;;;;;;;146.00;38.47;;;-1.40;99.90;;;;;;6194788;23;20420;-77
2022/12/10 07:23:02;;;;;;;61.65;23.08;;;-1.50;99.90;;;;;;6219039;23;20020;-76
2022/12/10 07:25:29;;;;;;;86.22;27.38;;;-1.60;99.90;;;;;;6171688;23;20016;-77
2022/12/10 07:28:07;;;;;;;156.23;35.05;;;-1.50;99.90;;;;;;6220547;23;20024;-76
2022/12/10 07:30:33;;;;;;;79.95;28.88;;;-1.50;99.90;;;;;;6191978;23;20020;-76
2022/12/10 07:32:59;;;;;;;56.40;21.55;;;-1.60;99.90;;;;;;6194248;23;20016;-76
2022/12/10 07:35:24;;;;;;;86.70;28.92;;;-0.10;99.90;;;;;;6170888;23;20016;-76
2022/12/10 07:37:50;;;;;;;95.32;31.77;;;-0.40;99.90;;;;;;6196255;23;20306;-75
2022/12/10 07:40:16;;;;;;;69.47;23.00;;;0.00;99.90;;;;;;6196947;23;20017;-75
2022/12/10 07:42:42;;;;;;;154.35;37.67;;;;;;;;;;6220374;23;20524;-75
2022/12/10 07:45:08;;;;;;;118.70;34.45;;;-1.40;99.90;;;;;;6217491;23;20057;-75
2022/12/10 07:48:15;;;;;;;131.85;35.80;;;-1.50;99.90;;;;;;6219083;23;20021;-75
2022/12/10 07:51:25;;;;;;;168.70;44.28;;;-1.10;99.90;;;;;;6190305;23;20021;-75
2022/12/10 07:57:24;;;;;;;120.28;37.03;;;-1.40;99.90;;;;;;6025668;23;20027;-75
2022/12/10 07:59:53;;;;;;;98.97;33.33;;;-1.20;99.90;;;;;;5995528;23;20015;-77
2022/12/10 08:02:39;;;;;;;91.78;30.15;;;-1.90;99.90;;;;;;6065680;23;20355;-77
2022/12/10 08:05:44;;;;;;;;;;;;;;;;;;;;;
2022/12/10 08:08:37;;;;;;;;;;;;;;;;;;;;;
2022/12/10 08:11:32;;;;;;;;;;;;;;;;;;;;;
2022/12/10 08:14:04;;;;;;;145.43;38.45;;;-0.30;99.90;;;;;;6072710;23;19913;-76
2022/12/10 08:16:49;;;;;;;124.72;35.63;;;0.10;99.90;;;;;;6025662;23;20078;-76
2022/12/10 08:19:54;;;;;;;;;;;;;;;;;;;;;
2022/12/10 08:22:34;;;;;;;114.22;34.25;;;-1.20;99.90;;;;;;6197791;23;20020;-76
2022/12/10 08:25:28;;;;;;;77.07;26.48;;;-2.30;99.90;;;;;;6191023;23;20012;-76
2022/12/10 08:28:10;;;;;;;135.85;37.33;;;-1.90;99.90;;;;;;6221375;23;20068;-76
2022/12/10 08:31:15;;;;;;;146.93;35.95;;;-1.30;99.90;;;;;;6193544;23;20028;-76
2022/12/10 08:33:47;;;;;;;112.97;34.45;;;-1.30;99.90;;;;;;6194235;23;20067;-76
2022/12/10 08:36:40;;;;;;;120.55;33.30;;;0.40;99.90;;;;;;6193052;23;20294;-76
2022/12/10 08:39:14;;;;;;;76.03;26.50;;;-1.20;99.90;;;;;;6193331;23;20076;-77
2022/12/10 08:42:16;;;;;;;;;;;;;;;;;;;;;
2022/12/10 08:45:25;;;;;;;109.07;32.20;;;-1.50;99.90;;;;;;6218613;23;20014;-76
2022/12/10 08:48:23;;;;;;;141.25;38.80;;;-2.10;99.90;;;;;;6192796;23;20203;-77
2022/12/10 08:51:08;;;;;;;90.10;30.35;;;-0.90;99.90;;;;;;6194271;23;20044;-77
2022/12/10 08:53:44;;;;;;;72.32;26.13;;;-1.70;99.90;;;;;;6193142;23;20016;-76
2022/12/10 08:56:13;;;;;;;110.68;31.02;;;-1.40;99.90;;;;;;6214415;23;20020;-76
2022/12/10 08:58:46;;;;;;;140.93;37.58;;;-1.00;99.90;;;;;;6192524;23;20016;-76
2022/12/10 09:01:20;;;;;;;146.45;39.30;;;-2.70;99.90;;;;;;6192711;23;20012;-76
2022/12/10 09:03:46;;;;;;;111.95;33.40;;;-1.00;99.90;;;;;;6192865;23;20062;-75
2022/12/10 09:06:32;;;;;;;121.80;35.15;;;-1.70;99.90;;;;;;6216941;23;20343;-77
2022/12/10 09:09:01;;;;;;;158.93;40.58;;;-1.10;99.90;;;;;;6216537;23;20027;-76
2022/12/10 09:11:30;;;;;;;105.97;30.33;;;-1.10;99.90;;;;;;6191561;23;20020;-75
2022/12/10 09:13:58;;;;;;;105.03;32.45;;;-0.70;99.90;;;;;;6219104;23;20123;-74
2022/12/10 09:16:35;;;;;;;148.30;41.95;;;-1.30;99.90;;;;;;6191301;23;20292;-76
2022/12/10 09:19:14;;;;;;;112.55;36.20;;;-1.10;99.90;;;;;;6216987;23;20188;-76
2022/12/10 09:21:42;;;;;;;119.47;33.15;;;-1.10;99.90;;;;;;6218238;23;20012;-76
2022/12/10 09:24:34;;;;;;;112.88;32.47;;;-1.10;99.90;;;;;;6166507;23;20075;-76
2022/12/10 09:28:14;;;;;;;;;;;;;;;;;;;;;
2022/12/10 09:31:11;;;;;;;94.10;30.25;;;0.90;99.90;;;;;;6218606;23;20249;-77
2022/12/10 09:34:17;;;;;;;;;;;;;;;;;;;;;
2022/12/10 09:36:50;;;;;;;107.43;31.15;;;-1.10;99.90;;;;;;6211985;23;20044;-75
2022/12/10 09:39:27;;;;;;;102.38;30.73;;;1.00;99.90;;;;;;6216245;23;20020;-74
2022/12/10 09:42:05;;;;;;;119.00;35.67;;;-1.70;99.90;;;;;;6217103;23;20013;-74
2022/12/10 09:45:19;;;;;;;;;;;;;;;;;;;;;
2022/12/10 09:48:31;;;;;;;87.72;30.42;;;-1.00;99.90;;;;;;6218413;23;20615;-74
2022/12/10 09:51:12;;;;;;;106.85;33.83;;;1.00;99.90;;;;;;6193175;23;20082;-75
2022/12/10 09:53:45;;;;;;;108.47;31.73;;;-1.10;99.90;;;;;;6193510;23;20352;-74
2022/12/10 09:56:43;;;;;;;;;;;;;;;;;;;;;
2022/12/10 09:59:43;;;;;;;92.43;30.83;;;-1.20;99.90;;;;;;6217529;23;20214;-75
2022/12/10 10:02:44;;;;;;;145.95;41.65;;;-0.70;99.90;;;;;;6217845;23;20017;-75
2022/12/10 10:05:46;;;;;;;103.65;32.53;;;-1.20;99.90;;;;;;6193307;23;20021;-74
2022/12/10 10:08:57;;;;;;;117.57;34.05;;;-0.90;99.90;;;;;;6209220;23;20012;-75
2022/12/10 10:11:42;;;;;;;134.07;36.88;;;-0.90;99.90;;;;;;6178991;23;20264;-74
2022/12/10 10:17:34;;;;;;;113.95;35.15;;;-0.70;99.90;;;;;;6219074;23;20082;-74
2022/12/10 10:20:31;;;;;;;133.50;40.40;;;-1.40;99.90;;;;;;6219002;23;20015;-73
2022/12/10 10:23:19;;;;;;;105.07;31.80;;;-0.50;99.90;;;;;;6195971;23;20008;-75
2022/12/10 10:25:58;;;;;;;117.07;32.22;;;-0.40;99.90;;;;;;6174934;23;20270;-76
2022/12/10 10:29:11;;;;;;;111.55;32.22;;;-0.30;99.90;;;;;;6218940;23;20017;-75
2022/12/10 10:31:40;;;;;;;106.10;31.02;;;-1.70;99.90;;;;;;6218188;23;20040;-76
2022/12/10 10:34:26;;;;;;;105.00;33.55;;;-0.50;99.90;;;;;;6193112;23;20087;-76
2022/12/10 10:37:28;;;;;;;109.82;33.15;;;1.50;99.90;;;;;;6194275;23;20025;-75
2022/12/10 10:40:07;;;;;;;104.43;33.08;;;-0.70;99.90;;;;;;6194524;23;20017;-75
2022/12/10 10:43:28;;;;;;;96.45;30.55;;;-0.40;99.90;;;;;;6220152;23;20016;-75
2022/12/10 10:49:48;;;;;;;101.55;32.03;;;-0.30;99.90;;;;;;6164625;23;20125;-77
2022/12/10 10:52:16;;;;;;;98.55;30.40;;;0.00;99.90;;;;;;6162624;23;20009;-76
2022/12/10 10:54:44;;;;;;;87.20;29.88;;;0.50;99.90;;;;;;6182997;23;20008;-76
2022/12/10 10:57:16;;;;;;;82.80;27.90;;;-0.40;99.90;;;;;;6193951;23;20039;-75
2022/12/10 10:59:55;;;;;;;;;;;;;;;;;;;;;
2022/12/10 11:02:35;;;;;;;89.93;31.20;;;-0.50;99.90;;;;;;6219069;23;20021;-75
2022/12/10 11:05:23;;;;;;;103.38;34.30;;;-0.70;99.90;;;;;;6218761;23;20026;-73
2022/12/10 11:08:00;;;;;;;95.35;30.75;;;-0.40;99.90;;;;;;6194663;23;20039;-76
2022/12/10 11:10:30;;;;;;;105.13;33.30;;;-0.30;99.90;;;;;;6193910;23;20020;-76
2022/12/10 11:13:06;;;;;;;95.85;30.92;;;-0.50;99.90;;;;;;6194922;23;20017;-76
2022/12/10 11:15:41;;;;;;;110.80;36.40;;;0.60;99.90;;;;;;6220618;23;20017;-76
2022/12/10 11:18:31;;;;;;;112.22;35.47;;;1.10;99.90;;;;;;6193910;23;20008;-75
2022/12/10 11:21:06;;;;;;;108.18;36.60;;;-0.10;99.90;;;;;;6193982;23;20096;-75
2022/12/10 11:23:46;;;;;;;95.00;32.92;;;-0.40;99.90;;;;;;6194354;23;20012;-75
2022/12/10 11:26:37;;;;;;;103.60;33.30;;;-0.50;99.90;;;;;;6218564;23;20108;-76
2022/12/10 11:29:44;;;;;;;98.93;31.83;;;-0.20;99.90;;;;;;6195229;23;20012;-74
2022/12/10 11:32:36;;;;;;;99.65;32.78;;;-0.10;99.90;;;;;;6163271;23;20235;-74
2022/12/10 11:35:21;;;;;;;108.90;35.10;;;-0.10;99.90;;;;;;6193906;23;20008;-75
2022/12/10 11:38:15;;;;;;;102.07;33.10;;;-0.30;99.90;;;;;;6220014;23;20012;-74
2022/12/10 11:40:49;;;;;;;108.97;36.33;;;1.30;99.90;;;;;;6185338;23;20013;-75
2022/12/10 11:43:51;;;;;;;107.45;33.70;;;1.10;99.90;;;;;;6194278;23;20012;-76
2022/12/10 11:46:47;;;;;;;107.10;35.30;;;-0.20;99.90;;;;;;6192466;23;20012;-77
2022/12/10 11:49:27;;;;;;;;;;;0.10;99.90;;;;;;6194549;23;20012;-74
2022/12/10 11:52:28;;;;;;;79.50;28.38;;;0.40;99.90;;;;;;6219393;23;19930;-74
2022/12/10 11:55:13;;;;;;;94.13;30.58;;;0.30;99.90;;;;;;6164587;23;20051;-76
2022/12/10 11:58:23;;;;;;;103.97;33.95;;;0.20;99.90;;;;;;6219513;23;20012;-75
2022/12/10 12:45:07;;;;;;;64.82;24.13;;;-0.40;99.90;;;;;;5958890;24;20322;-77
2022/12/10 12:48:22;;;;;;;;;;;;;;;;;;;;;
2022/12/10 12:51:24;;;;;;;58.97;22.00;;;-0.10;99.90;;;;;;5988627;23;20028;-77
2022/12/10 12:53:53;;;;;;;61.50;24.67;;;-0.60;99.90;;;;;;5982587;23;20727;-76
2022/12/10 12:57:03;;;;;;;66.28;23.90;;;0.20;99.90;;;;;;6044578;23;20552;-77
2022/12/10 12:59:55;;;;;;;71.95;24.17;;;-0.10;99.90;;;;;;6162459;23;20017;-77
2022/12/10 13:02:29;;;;;;;69.75;26.58;;;0.10;99.90;;;;;;6138831;23;20008;-77
2022/12/10 13:04:58;;;;;;;73.80;26.33;;;-0.10;99.90;;;;;;6164606;23;20023;-77
2022/12/10 13:11:19;;;;;;;81.15;29.45;;;0.20;99.90;;;;;;6190025;23;20017;-77
2022/12/10 13:28:24;;;;;;;76.57;28.15;;;0.20;99.90;;;;;;6190104;23;20021;-77
2022/12/10 13:49:32;;;;;;;62.28;23.38;;;0.40;99.90;;;;;;6009209;23;20052;-78
2022/12/10 13:52:45;;;;;;;;;;;;;;;;;;;;;
2022/12/10 13:55:46;;;;;;;79.82;25.40;;;-1.10;99.90;;;;;;6200655;23;20016;-76
2022/12/10 14:06:28;;;;;;;;;;;;;;;;;;;;;
2022/12/10 14:16:09;;;;;;;70.38;22.13;;;0.10;99.90;;;;;;6141681;23;20080;-77
2022/12/10 14:19:14;;;;;;;86.45;24.92;;;-0.30;99.90;;;;;;6125128;23;20020;-77
2022/12/10 14:21:42;;;;;;;63.03;21.27;;;0.40;99.90;;;;;;6166224;23;20058;-76
2022/12/10 14:40:05;;;;;;;70.25;20.98;;;-0.10;99.90;;;;;;5771463;24;20016;-78
2022/12/10 14:54:22;;;;;;;75.85;20.67;;;-0.90;99.90;;;;;;5668269;22;15090184;-76
2022/12/10 15:00:41;;;;;;;73.57;21.65;;;-0.30;99.90;;;;;;6109503;23;20025;-77
2022/12/10 15:03:47;;;;;;;;;;;;;;;;;;;;;
2022/12/10 15:10:33;;;;;;;;;;;;;;;;;;;;;
2022/12/10 15:13:39;;;;;;;65.25;21.25;;;0.10;99.90;;;;;;6172738;22;20029;-77
2022/12/10 15:24:01;;;;;;;78.63;21.98;;;-0.60;99.90;;;;;;6042840;23;20071;-78
2022/12/10 15:27:04;;;;;;;;;;;;;;;;;;;;;
2022/12/10 15:34:20;;;;;;;93.07;23.00;;;1.80;99.90;;;;;;6126947;23;20013;-78
2022/12/10 15:37:23;;;;;;;79.97;22.77;;;0.70;99.90;;;;;;6049376;23;20015;-79
2022/12/10 15:40:05;;;;;;;75.18;21.10;;;0.30;99.90;;;;;;6023575;23;20400;-76
2022/12/10 15:43:08;;;;;;;;;;;;;;;;;;;;;
2022/12/10 15:45:42;;;;;;;115.65;27.15;;;2.20;99.90;;;;;;6059504;23;20080;-78
2022/12/10 15:49:03;;;;;;;64.10;22.20;;;0.20;99.90;;;;;;6266148;22;20011;-79
2022/12/10 15:52:14;;;;;;;94.55;23.80;;;0.00;99.90;;;;;;6252673;22;20011;-78
2022/12/10 15:54:43;;;;;;;67.70;22.02;;;-0.50;99.90;;;;;;6206146;22;20332;-78
2022/12/10 15:57:35;;;;;;;68.53;20.73;;;1.90;99.90;;;;;;6260811;22;20403;-78
2022/12/10 16:00:34;;;;;;;79.05;23.92;;;-0.80;99.90;;;;;;6284359;22;20054;-78
2022/12/10 16:03:14;;;;;;;84.78;23.25;;;0.30;99.90;;;;;;6233497;22;20021;-79
2022/12/10 16:20:09;;;;;;;53.33;20.80;;;-1.00;99.90;;;;;;6179528;23;20013;-79
2022/12/10 16:23:05;;;;;;;67.70;20.98;;;0.30;99.90;;;;;;6181079;23;20023;-79
2022/12/10 16:26:10;;;;;;;70.40;22.27;;;1.80;99.90;;;;;;6146939;23;20311;-78
2022/12/10 16:29:23;;;;;;;88.43;28.70;;;-0.10;99.90;;;;;;6152278;23;20291;-79
2022/12/10 16:32:22;;;;;;;90.55;26.20;;;0.00;99.90;;;;;;6160034;23;20283;-77
2022/12/10 16:34:55;;;;;;;97.03;31.13;;;-0.50;99.90;;;;;;6168478;23;20396;-77
2022/12/10 16:37:26;;;;;;;98.32;31.63;;;0.30;99.90;;;;;;6122380;23;20019;-77
2022/12/10 16:40:29;;;;;;;79.68;25.48;;;-0.50;99.90;;;;;;6195377;22;20078;-78